createdAt,value
2019-03-28T00:00:15.071Z,98108.67
2019-03-28T00:01:24.698Z,98107.38
2019-03-28T00:02:32.819Z,98109.63
2019-03-28T00:03:40.840Z,98107.50
2019-03-28T00:04:48.905Z,98105.81
2019-03-28T00:05:56.910Z,98100.64
2019-03-28T00:07:04.948Z,98107.55
2019-03-28T00:08:12.938Z,98107.95
2019-03-28T00:09:20.944Z,98104.97
2019-03-28T00:10:28.945Z,98104.97
2019-03-28T00:11:36.985Z,98106.72
2019-03-28T00:12:45.006Z,98103.77
2019-03-28T00:13:52.997Z,98101.18
2019-03-28T00:15:01.017Z,98102.92
2019-03-28T00:16:09.192Z,98102.08
2019-03-28T00:17:17.227Z,98102.98
2019-03-28T00:18:25.217Z,98102.59
2019-03-28T00:19:33.209Z,98098.72
2019-03-28T00:20:41.213Z,98100.01
2019-03-28T00:21:49.323Z,98097.88
2019-03-28T00:23:13.051Z,98099.62
2019-03-28T00:24:40.019Z,98092.76
2019-03-28T00:25:48.010Z,98086.02
2019-03-28T00:26:56.018Z,98094.05
2019-03-28T00:28:04.022Z,98094.56
2019-03-28T00:29:12.054Z,98092.48
2019-03-28T00:30:20.968Z,98092.88
2019-03-28T00:31:28.971Z,98091.97
2019-03-28T00:32:36.979Z,98097.98
2019-03-28T00:33:44.972Z,98096.24
2019-03-28T00:34:52.973Z,98092.81
2019-03-28T00:36:01.008Z,98093.66
2019-03-28T00:37:09.239Z,98094.50
2019-03-28T00:38:17.274Z,98095.85
2019-03-28T00:39:25.656Z,98090.28
2019-03-28T00:40:33.661Z,98091.12
2019-03-28T00:41:41.697Z,98090.28
2019-03-28T00:42:49.718Z,98094.23
2019-03-28T00:43:57.709Z,98089.89
2019-03-28T00:45:06.287Z,98094.67
2019-03-28T00:46:14.261Z,98094.23
2019-03-28T00:47:22.299Z,98092.09
2019-03-28T00:48:30.303Z,98089.95
2019-03-28T00:49:38.309Z,98089.05
2019-03-28T00:50:46.302Z,98094.67
2019-03-28T00:51:54.305Z,98087.82
2019-03-28T00:53:02.436Z,98089.11
2019-03-28T00:54:10.428Z,98092.54
2019-03-28T00:55:18.430Z,98092.15
2019-03-28T00:56:26.520Z,98092.15
2019-03-28T00:57:34.964Z,98091.30
2019-03-28T00:58:43.093Z,98094.80
2019-03-28T00:59:51.122Z,98094.40
2019-03-28T01:00:59.207Z,98094.85
2019-03-28T01:02:07.336Z,98090.22
2019-03-28T01:03:15.340Z,98096.23
2019-03-28T01:04:23.359Z,98089.38
2019-03-28T01:05:31.365Z,98088.09
2019-03-28T01:06:39.404Z,98091.12
2019-03-28T01:07:47.422Z,98088.98
2019-03-28T01:08:55.443Z,98095.05
2019-03-28T01:10:03.392Z,98091.18
2019-03-28T01:11:12.119Z,98093.82
2019-03-28T01:12:20.211Z,98094.27
2019-03-28T01:13:28.245Z,98092.08
2019-03-28T01:14:36.252Z,98095.12
2019-03-28T01:15:44.244Z,98099.39
2019-03-28T01:16:52.250Z,98095.12
2019-03-28T01:18:00.286Z,98097.31
2019-03-28T01:19:10.348Z,98095.17
2019-03-28T01:20:19.773Z,98099.50
2019-03-28T01:21:28.487Z,98095.68
2019-03-28T01:22:37.124Z,98097.03
2019-03-28T01:23:46.315Z,98092.31
2019-03-28T01:24:57.652Z,98094.50
2019-03-28T01:26:05.578Z,98093.21
2019-03-28T01:27:14.263Z,98091.56
2019-03-28T01:28:22.969Z,98091.16
2019-03-28T01:29:32.225Z,98087.29
2019-03-28T01:30:40.839Z,98089.88
2019-03-28T01:31:49.615Z,98083.02
2019-03-28T01:32:58.372Z,98082.18
2019-03-28T01:34:08.123Z,98082.63
2019-03-28T01:35:17.152Z,98085.72
2019-03-28T01:36:25.926Z,98084.03
2019-03-28T01:37:34.536Z,98084.94
2019-03-28T01:38:43.324Z,98084.48
2019-03-28T01:39:52.014Z,98081.11
2019-03-28T01:41:00.982Z,98077.69
2019-03-28T01:42:09.876Z,98076.84
2019-03-28T01:43:18.594Z,98081.17
2019-03-28T01:44:27.306Z,98079.48
2019-03-28T01:45:36.061Z,98077.30
2019-03-28T01:46:44.718Z,98076.91
2019-03-28T01:47:53.604Z,98076.91
2019-03-28T01:49:03.768Z,98075.61
2019-03-28T01:50:12.035Z,98078.64
2019-03-28T01:51:20.041Z,98076.06
2019-03-28T01:52:28.031Z,98076.55
2019-03-28T01:53:36.062Z,98077.44
2019-03-28T01:54:44.027Z,98073.95
2019-03-28T01:55:52.033Z,98076.16
2019-03-28T01:57:10.214Z,98076.16
2019-03-28T01:58:09.784Z,98077.92
2019-03-28T01:59:18.613Z,98078.80
2019-03-28T02:00:27.397Z,98074.94
2019-03-28T02:01:36.093Z,98077.58
2019-03-28T02:02:46.949Z,98079.32
2019-03-28T02:03:55.722Z,98083.20
2019-03-28T02:05:04.811Z,98085.00
2019-03-28T02:06:13.577Z,98080.33
2019-03-28T02:07:22.289Z,98080.78
2019-03-28T02:08:30.997Z,98085.11
2019-03-28T02:09:39.052Z,98086.94
2019-03-28T02:10:47.073Z,98078.80
2019-03-28T02:11:55.096Z,98089.58
2019-03-28T02:13:03.115Z,98083.17
2019-03-28T02:14:11.317Z,98081.05
2019-03-28T02:15:19.383Z,98082.39
2019-03-28T02:16:27.403Z,98079.41
2019-03-28T02:17:35.423Z,98078.57
2019-03-28T02:18:43.486Z,98079.92
2019-03-28T02:19:51.523Z,98079.97
2019-03-28T02:20:59.559Z,98084.69
2019-03-28T02:22:07.581Z,98081.27
2019-03-28T02:23:15.630Z,98081.32
2019-03-28T02:24:23.658Z,98083.55
2019-03-28T02:25:31.657Z,98079.72
2019-03-28T02:26:40.772Z,98074.61
2019-03-28T02:27:48.899Z,98075.12
2019-03-28T02:28:56.913Z,98075.56
2019-03-28T02:30:05.456Z,98074.33
2019-03-28T02:31:13.472Z,98076.91
2019-03-28T02:32:21.507Z,98077.36
2019-03-28T02:33:29.619Z,98078.31
2019-03-28T02:34:37.611Z,98072.75
2019-03-28T02:35:45.617Z,98080.20
2019-03-28T02:36:53.613Z,98078.45
2019-03-28T02:38:02.028Z,98073.40
2019-03-28T02:39:10.125Z,98079.46
2019-03-28T02:40:18.119Z,98076.09
2019-03-28T02:41:26.131Z,98078.22
2019-03-28T02:42:34.211Z,98078.33
2019-03-28T02:43:42.199Z,98082.66
2019-03-28T02:44:50.185Z,98080.97
2019-03-28T02:45:58.179Z,98080.58
2019-03-28T02:47:06.195Z,98073.28
2019-03-28T02:48:14.188Z,98074.66
2019-03-28T02:49:22.193Z,98072.52
2019-03-28T02:50:30.208Z,98071.67
2019-03-28T02:51:38.202Z,98074.31
2019-03-28T02:52:46.223Z,98080.32
2019-03-28T02:53:54.229Z,98077.34
2019-03-28T02:55:02.252Z,98084.25
2019-03-28T02:56:10.259Z,98076.55
2019-03-28T02:57:18.278Z,98083.01
2019-03-28T02:58:26.283Z,98083.01
2019-03-28T02:59:34.332Z,98081.72
2019-03-28T03:00:42.428Z,98082.22
2019-03-28T03:01:50.449Z,98078.34
2019-03-28T03:02:58.454Z,98071.95
2019-03-28T03:04:06.490Z,98077.56
2019-03-28T03:05:14.768Z,98077.61
2019-03-28T03:06:22.758Z,98077.25
2019-03-28T03:07:30.763Z,98077.30
2019-03-28T03:08:38.755Z,98084.59
2019-03-28T03:09:46.789Z,98079.09
2019-03-28T03:10:54.797Z,98079.98
2019-03-28T03:12:02.905Z,98074.43
2019-03-28T03:13:12.022Z,98078.30
2019-03-28T03:14:20.061Z,98077.46
2019-03-28T03:15:28.074Z,98079.20
2019-03-28T03:16:36.248Z,98073.64
2019-03-28T03:17:44.230Z,98078.80
2019-03-28T03:18:52.239Z,98080.55
2019-03-28T03:20:00.383Z,98075.83
2019-03-28T03:21:09.758Z,98075.83
2019-03-28T03:22:18.068Z,98079.70
2019-03-28T03:23:26.057Z,98079.30
2019-03-28T03:24:34.073Z,98081.05
2019-03-28T03:25:42.069Z,98082.33
2019-03-28T03:26:50.107Z,98078.91
2019-03-28T03:27:59.241Z,98081.94
2019-03-28T03:29:09.281Z,98080.65
2019-03-28T03:30:17.592Z,98084.12
2019-03-28T03:31:25.892Z,98082.47
2019-03-28T03:32:34.058Z,98085.50
2019-03-28T03:33:42.070Z,98085.50
2019-03-28T03:34:50.109Z,98083.81
2019-03-28T03:35:58.124Z,98086.79
2019-03-28T03:37:06.146Z,98081.23
2019-03-28T03:38:14.171Z,98081.23
2019-03-28T03:39:22.173Z,98088.08
2019-03-28T03:40:30.375Z,98089.38
2019-03-28T03:41:38.770Z,98090.66
2019-03-28T03:42:46.791Z,98084.66
2019-03-28T03:43:54.978Z,98088.08
2019-03-28T03:45:02.982Z,98090.27
2019-03-28T03:46:12.157Z,98092.40
2019-03-28T03:47:20.178Z,98087.69
2019-03-28T03:48:28.182Z,98088.13
2019-03-28T03:49:36.201Z,98089.42
2019-03-28T03:50:44.203Z,98086.00
2019-03-28T03:51:52.214Z,98086.45
2019-03-28T03:53:00.230Z,98085.16
2019-03-28T03:54:08.226Z,98088.58
2019-03-28T03:55:16.245Z,98086.39
2019-03-28T03:56:24.267Z,98091.61
2019-03-28T03:57:32.289Z,98089.42
2019-03-28T03:58:40.492Z,98091.16
2019-03-28T03:59:48.522Z,98092.05
2019-03-28T04:00:56.547Z,98092.90
2019-03-28T04:02:04.536Z,98093.34
2019-03-28T04:03:12.528Z,98094.19
2019-03-28T04:04:21.833Z,98091.61
2019-03-28T04:05:31.374Z,98092.05
2019-03-28T04:06:39.395Z,98096.82
2019-03-28T04:07:47.399Z,98095.14
2019-03-28T04:08:55.406Z,98087.45
2019-03-28T04:10:03.397Z,98094.34
2019-03-28T04:11:11.431Z,98096.92
2019-03-28T04:12:19.444Z,98101.69
2019-03-28T04:13:28.542Z,98103.42
2019-03-28T04:14:36.560Z,98104.27
2019-03-28T04:15:44.580Z,98103.87
2019-03-28T04:16:52.587Z,98096.13
2019-03-28T04:18:00.578Z,98100.40
2019-03-28T04:19:10.621Z,98102.58
2019-03-28T04:20:18.283Z,98103.48
2019-03-28T04:21:26.312Z,98107.34
2019-03-28T04:22:34.297Z,98102.27
2019-03-28T04:23:42.314Z,98102.72
2019-03-28T04:24:50.349Z,98102.27
2019-03-28T04:25:58.372Z,98101.88
2019-03-28T04:27:06.392Z,98104.02
2019-03-28T04:28:24.781Z,98098.90
2019-03-28T04:29:24.116Z,98103.56
2019-03-28T04:30:32.119Z,98096.71
2019-03-28T04:31:40.141Z,98098.84
2019-03-28T04:32:48.236Z,98095.82
2019-03-28T04:33:56.245Z,98096.19
2019-03-28T04:35:04.602Z,98095.34
2019-03-28T04:36:12.630Z,98095.73
2019-03-28T04:37:20.664Z,98092.31
2019-03-28T04:38:28.685Z,98093.16
2019-03-28T04:39:36.704Z,98092.71
2019-03-28T04:40:44.700Z,98094.05
2019-03-28T04:41:52.708Z,98096.63
2019-03-28T04:43:00.722Z,98094.05
2019-03-28T04:44:08.744Z,98092.00
2019-03-28T04:45:16.958Z,98096.27
2019-03-28T04:46:24.994Z,98088.19
2019-03-28T04:47:32.989Z,98091.66
2019-03-28T04:48:41.011Z,98090.81
2019-03-28T04:49:48.997Z,98093.84
2019-03-28T04:50:57.034Z,98097.77
2019-03-28T04:52:05.160Z,98098.20
2019-03-28T04:53:13.178Z,98100.79
2019-03-28T04:54:21.216Z,98103.81
2019-03-28T04:55:29.265Z,98096.57
2019-03-28T04:56:37.836Z,98103.92
2019-03-28T04:57:46.282Z,98105.25
2019-03-28T04:58:54.304Z,98101.52
2019-03-28T05:00:02.309Z,98102.86
2019-03-28T05:01:10.392Z,98109.31
2019-03-28T05:02:18.404Z,98109.31
2019-03-28T05:03:26.387Z,98110.25
2019-03-28T05:04:34.423Z,98110.70
2019-03-28T05:05:42.496Z,98112.83
2019-03-28T05:06:50.550Z,98108.61
2019-03-28T05:07:58.531Z,98109.45
2019-03-28T05:09:11.468Z,98109.91
2019-03-28T05:10:17.315Z,98111.24
2019-03-28T05:11:25.336Z,98107.91
2019-03-28T05:12:33.344Z,98114.80
2019-03-28T05:13:41.348Z,98113.88
2019-03-28T05:14:49.398Z,98117.74
2019-03-28T05:15:57.563Z,98118.72
2019-03-28T05:17:05.592Z,98122.14
2019-03-28T05:18:13.611Z,98125.56
2019-03-28T05:19:21.618Z,98126.01
2019-03-28T05:20:29.625Z,98119.56
2019-03-28T05:21:37.615Z,98115.69
2019-03-28T05:22:45.619Z,98116.98
2019-03-28T05:23:54.930Z,98116.98
2019-03-28T05:25:02.940Z,98122.53
2019-03-28T05:26:10.945Z,98118.27
2019-03-28T05:27:18.951Z,98120.84
2019-03-28T05:28:26.955Z,98126.41
2019-03-28T05:29:34.991Z,98127.74
2019-03-28T05:30:46.360Z,98133.30
2019-03-28T05:31:54.366Z,98130.72
2019-03-28T05:33:02.388Z,98130.38
2019-03-28T05:34:10.394Z,98132.50
2019-03-28T05:35:18.429Z,98132.95
2019-03-28T05:36:26.430Z,98134.23
2019-03-28T05:37:34.489Z,98133.34
2019-03-28T05:38:42.495Z,98133.34
2019-03-28T05:39:50.550Z,98141.48
2019-03-28T05:40:58.566Z,98134.64
2019-03-28T05:42:06.573Z,98135.48
2019-03-28T05:43:14.593Z,98135.88
2019-03-28T05:44:22.596Z,98132.45
2019-03-28T05:45:30.619Z,98127.70
2019-03-28T05:46:38.656Z,98129.83
2019-03-28T05:47:46.650Z,98130.64
2019-03-28T05:48:54.592Z,98130.19
2019-03-28T05:50:02.584Z,98137.88
2019-03-28T05:51:10.605Z,98135.30
2019-03-28T05:52:18.614Z,98139.17
2019-03-28T05:53:26.632Z,98135.30
2019-03-28T05:54:34.639Z,98143.88
2019-03-28T05:55:42.647Z,98148.16
2019-03-28T05:56:50.635Z,98141.26
2019-03-28T05:58:00.171Z,98143.39
2019-03-28T05:59:11.189Z,98141.20
2019-03-28T06:00:18.165Z,98145.48
2019-03-28T06:01:26.232Z,98143.30
2019-03-28T06:02:34.322Z,98138.53
2019-03-28T06:03:42.473Z,98145.77
2019-03-28T06:04:50.763Z,98141.02
2019-03-28T06:05:58.780Z,98138.35
2019-03-28T06:07:08.811Z,98142.17
2019-03-28T06:08:16.504Z,98145.59
2019-03-28T06:09:24.542Z,98144.70
2019-03-28T06:10:32.545Z,98151.55
2019-03-28T06:11:40.576Z,98151.10
2019-03-28T06:12:48.557Z,98143.31
2019-03-28T06:13:56.582Z,98140.68
2019-03-28T06:15:06.219Z,98139.39
2019-03-28T06:16:14.212Z,98138.05
2019-03-28T06:17:22.427Z,98138.45
2019-03-28T06:18:30.507Z,98137.11
2019-03-28T06:19:38.566Z,98139.16
2019-03-28T06:20:46.523Z,98140.84
2019-03-28T06:21:54.556Z,98140.80
2019-03-28T06:23:02.594Z,98140.30
2019-03-28T06:24:10.606Z,98138.11
2019-03-28T06:25:19.206Z,98145.36
2019-03-28T06:26:27.198Z,98145.75
2019-03-28T06:27:35.237Z,98150.87
2019-03-28T06:28:43.253Z,98154.20
2019-03-28T06:29:51.291Z,98158.92
2019-03-28T06:30:59.296Z,98154.16
2019-03-28T06:32:07.302Z,98155.40
2019-03-28T06:33:15.338Z,98155.34
2019-03-28T06:34:23.360Z,98152.72
2019-03-28T06:35:31.365Z,98159.12
2019-03-28T06:36:40.390Z,98160.75
2019-03-28T06:37:51.313Z,98155.14
2019-03-28T06:38:58.373Z,98159.77
2019-03-28T06:40:07.531Z,98158.94
2019-03-28T06:41:17.534Z,98159.33
2019-03-28T06:42:25.733Z,98164.44
2019-03-28T06:43:33.784Z,98162.25
2019-03-28T06:44:42.439Z,98159.67
2019-03-28T06:45:50.462Z,98164.34
2019-03-28T06:46:58.448Z,98162.99
2019-03-28T06:48:06.533Z,98159.52
2019-03-28T06:49:14.551Z,98158.23
2019-03-28T06:50:23.651Z,98155.98
2019-03-28T06:51:31.672Z,98157.28
2019-03-28T06:52:39.678Z,98162.45
2019-03-28T06:53:47.729Z,98162.89
2019-03-28T06:54:56.418Z,98165.02
2019-03-28T06:56:04.557Z,98164.19
2019-03-28T06:57:12.558Z,98170.74
2019-03-28T06:58:20.565Z,98166.08
2019-03-28T06:59:37.422Z,98174.72
2019-03-28T07:00:38.292Z,98164.89
2019-03-28T07:01:46.278Z,98170.55
2019-03-28T07:02:54.331Z,98165.83
2019-03-28T07:04:04.415Z,98164.94
2019-03-28T07:05:14.094Z,98167.08
2019-03-28T07:06:23.089Z,98167.02
2019-03-28T07:07:31.109Z,98172.13
2019-03-28T07:08:39.104Z,98163.84
2019-03-28T07:09:47.122Z,98161.59
2019-03-28T07:10:57.853Z,98166.18
2019-03-28T07:12:04.833Z,98160.07
2019-03-28T07:13:12.868Z,98163.84
2019-03-28T07:14:20.889Z,98166.77
2019-03-28T07:15:28.930Z,98164.89
2019-03-28T07:16:36.945Z,98157.48
2019-03-28T07:17:44.951Z,98158.22
2019-03-28T07:18:53.002Z,98152.55
2019-03-28T07:20:01.023Z,98157.61
2019-03-28T07:21:09.029Z,98157.16
2019-03-28T07:22:17.051Z,98154.09
2019-03-28T07:23:25.063Z,98155.34
2019-03-28T07:24:34.233Z,98153.55
2019-03-28T07:25:42.645Z,98156.02
2019-03-28T07:26:51.445Z,98153.83
2019-03-28T07:27:59.753Z,98153.33
2019-03-28T07:29:08.932Z,98159.64
2019-03-28T07:30:17.552Z,98160.38
2019-03-28T07:31:25.575Z,98157.23
2019-03-28T07:32:33.610Z,98160.19
2019-03-28T07:33:41.630Z,98160.89
2019-03-28T07:34:49.620Z,98159.09
2019-03-28T07:35:57.657Z,98159.88
2019-03-28T07:37:05.649Z,98157.24
2019-03-28T07:38:13.684Z,98157.19
2019-03-28T07:39:21.691Z,98163.98
2019-03-28T07:40:29.711Z,98153.25
2019-03-28T07:41:37.768Z,98160.95
2019-03-28T07:42:45.808Z,98161.34
2019-03-28T07:43:53.823Z,98155.64
2019-03-28T07:45:01.817Z,98154.73
2019-03-28T07:46:10.103Z,98159.41
2019-03-28T07:47:18.111Z,98153.78
2019-03-28T07:48:26.204Z,98159.34
2019-03-28T07:49:37.346Z,98155.41
2019-03-28T07:50:44.001Z,98156.66
2019-03-28T07:51:52.021Z,98160.86
2019-03-28T07:53:00.029Z,98159.03
2019-03-28T07:54:08.064Z,98164.87
2019-03-28T07:55:16.707Z,98162.57
2019-03-28T07:56:24.856Z,98164.20
2019-03-28T07:57:32.849Z,98160.17
2019-03-28T07:58:44.112Z,98159.22
2019-03-28T08:00:03.496Z,98154.31
2019-03-28T08:01:01.263Z,98156.30
2019-03-28T08:02:09.343Z,98154.50
2019-03-28T08:03:17.364Z,98159.11
2019-03-28T08:04:25.400Z,98152.52
2019-03-28T08:05:33.426Z,98157.48
2019-03-28T08:06:49.641Z,98155.63
2019-03-28T08:07:51.984Z,98154.21
2019-03-28T08:08:59.979Z,98157.52
2019-03-28T08:10:09.586Z,98156.17
2019-03-28T08:11:17.613Z,98152.59
2019-03-28T08:12:25.613Z,98150.78
2019-03-28T08:13:33.620Z,98156.73
2019-03-28T08:14:41.629Z,98154.94
2019-03-28T08:15:49.647Z,98154.88
2019-03-28T08:16:57.686Z,98157.85
2019-03-28T08:18:05.736Z,98150.93
2019-03-28T08:19:13.816Z,98159.54
2019-03-28T08:20:22.321Z,98158.60
2019-03-28T08:21:30.323Z,98155.95
2019-03-28T08:22:38.320Z,98157.25
2019-03-28T08:23:46.336Z,98159.72
2019-03-28T08:24:54.371Z,98161.34
2019-03-28T08:26:02.439Z,98164.70
2019-03-28T08:27:10.504Z,98157.18
2019-03-28T08:28:18.526Z,98155.31
2019-03-28T08:29:26.547Z,98159.52
2019-03-28T08:30:39.968Z,98161.08
2019-03-28T08:31:49.295Z,98158.34
2019-03-28T08:32:57.331Z,98163.00
2019-03-28T08:34:05.467Z,98159.83
2019-03-28T08:35:13.991Z,98157.55
2019-03-28T08:36:22.744Z,98167.67
2019-03-28T08:37:31.668Z,98164.96
2019-03-28T08:38:42.149Z,98160.05
2019-03-28T08:39:50.169Z,98164.25
2019-03-28T08:40:58.165Z,98158.92
2019-03-28T08:42:06.230Z,98165.20
2019-03-28T08:43:15.133Z,98164.62
2019-03-28T08:44:23.216Z,98166.59
2019-03-28T08:45:31.524Z,98165.17
2019-03-28T08:46:41.135Z,98165.43
2019-03-28T08:47:49.182Z,98167.44
2019-03-28T08:48:57.294Z,98167.66
2019-03-28T08:50:06.066Z,98167.47
2019-03-28T08:51:14.087Z,98168.17
2019-03-28T08:52:22.109Z,98161.08
2019-03-28T08:53:30.145Z,98163.93
2019-03-28T08:54:38.226Z,98161.59
2019-03-28T08:55:46.329Z,98166.09
2019-03-28T08:56:54.330Z,98168.09
2019-03-28T08:58:02.372Z,98170.09
2019-03-28T08:59:11.885Z,98159.56
2019-03-28T09:00:32.287Z,98170.56
2019-03-28T09:01:29.848Z,98169.13
2019-03-28T09:02:38.935Z,98170.30
2019-03-28T09:03:49.709Z,98168.83
2019-03-28T09:04:56.686Z,98170.38
2019-03-28T09:06:04.707Z,98167.64
2019-03-28T09:07:12.747Z,98168.42
2019-03-28T09:08:20.735Z,98166.11
2019-03-28T09:09:28.755Z,98173.37
2019-03-28T09:10:36.793Z,98170.17
2019-03-28T09:11:44.834Z,98171.41
2019-03-28T09:12:53.961Z,98170.00
2019-03-28T09:14:02.264Z,98166.85
2019-03-28T09:15:11.008Z,98162.89
2019-03-28T09:16:19.049Z,98164.95
2019-03-28T09:17:28.046Z,98161.00
2019-03-28T09:18:36.079Z,98159.62
2019-03-28T09:19:44.104Z,98164.29
2019-03-28T09:20:52.120Z,98159.48
2019-03-28T09:22:00.171Z,98164.12
2019-03-28T09:23:08.192Z,98159.77
2019-03-28T09:24:16.245Z,98161.00
2019-03-28T09:25:24.268Z,98153.14
2019-03-28T09:26:32.256Z,98154.68
2019-03-28T09:27:40.379Z,98152.92
2019-03-28T09:28:48.373Z,98152.02
2019-03-28T09:29:56.392Z,98150.19
2019-03-28T09:31:04.405Z,98160.01
2019-03-28T09:32:12.438Z,98152.61
2019-03-28T09:33:20.664Z,98151.70
2019-03-28T09:34:29.633Z,98155.52
2019-03-28T09:35:37.721Z,98152.92
2019-03-28T09:36:45.813Z,98154.53
2019-03-28T09:37:53.850Z,98151.86
2019-03-28T09:39:01.912Z,98153.55
2019-03-28T09:40:11.272Z,98157.36
2019-03-28T09:41:19.272Z,98156.91
2019-03-28T09:42:27.267Z,98156.80
2019-03-28T09:43:35.285Z,98158.03
2019-03-28T09:44:43.320Z,98158.88
2019-03-28T09:45:51.461Z,98156.28
2019-03-28T09:47:00.503Z,98156.28
2019-03-28T09:48:11.424Z,98162.31
2019-03-28T09:49:18.270Z,98158.03
2019-03-28T09:50:26.307Z,98156.34
2019-03-28T09:51:35.371Z,98158.95
2019-03-28T09:52:43.518Z,98160.55
2019-03-28T09:53:51.548Z,98158.34
2019-03-28T09:54:59.575Z,98159.95
2019-03-28T09:56:07.779Z,98162.78
2019-03-28T09:57:16.863Z,98163.45
2019-03-28T09:58:24.898Z,98159.86
2019-03-28T09:59:32.926Z,98161.47
2019-03-28T10:00:41.149Z,98163.54
2019-03-28T10:01:49.187Z,98165.15
2019-03-28T10:02:57.211Z,98163.28
2019-03-28T10:04:06.595Z,98166.20
2019-03-28T10:05:15.817Z,98162.69
2019-03-28T10:06:24.437Z,98166.58
2019-03-28T10:07:32.443Z,98166.96
2019-03-28T10:08:40.479Z,98166.05
2019-03-28T10:09:49.568Z,98164.22
2019-03-28T10:10:57.603Z,98164.59
2019-03-28T10:12:05.670Z,98167.13
2019-03-28T10:13:13.689Z,98165.36
2019-03-28T10:14:21.762Z,98168.42
2019-03-28T10:15:29.793Z,98159.79
2019-03-28T10:16:40.227Z,98159.79
2019-03-28T10:17:47.546Z,98155.89
2019-03-28T10:18:55.537Z,98164.14
2019-03-28T10:20:05.641Z,98156.27
2019-03-28T10:21:13.365Z,98159.25
2019-03-28T10:22:22.467Z,98160.62
2019-03-28T10:23:30.595Z,98159.79
2019-03-28T10:24:38.599Z,98157.27
2019-03-28T10:25:46.590Z,98150.77
2019-03-28T10:26:54.614Z,98154.67
2019-03-28T10:28:02.647Z,98151.23
2019-03-28T10:29:10.659Z,98156.80
2019-03-28T10:30:24.457Z,98159.33
2019-03-28T10:31:33.193Z,98151.46
2019-03-28T10:32:41.201Z,98154.41
2019-03-28T10:33:49.249Z,98150.82
2019-03-28T10:34:57.274Z,98160.22
2019-03-28T10:36:05.413Z,98151.36
2019-03-28T10:37:13.477Z,98156.75
2019-03-28T10:38:21.514Z,98156.61
2019-03-28T10:39:29.537Z,98152.17
2019-03-28T10:40:37.526Z,98155.53
2019-03-28T10:41:45.547Z,98153.32
2019-03-28T10:42:53.556Z,98155.77
2019-03-28T10:44:01.530Z,98155.28
2019-03-28T10:45:10.855Z,98157.34
2019-03-28T10:46:18.870Z,98159.44
2019-03-28T10:47:27.462Z,98152.41
2019-03-28T10:48:35.568Z,98152.70
2019-03-28T10:49:43.559Z,98158.67
2019-03-28T10:50:51.609Z,98160.23
2019-03-28T10:51:59.627Z,98156.65
2019-03-28T10:53:07.664Z,98156.11
2019-03-28T10:54:20.437Z,98156.87
2019-03-28T10:55:26.365Z,98153.81
2019-03-28T10:56:34.383Z,98157.25
2019-03-28T10:57:42.396Z,98150.22
2019-03-28T10:58:50.671Z,98151.06
2019-03-28T10:59:58.808Z,98146.52
2019-03-28T11:01:07.757Z,98139.86
2019-03-28T11:02:15.899Z,98145.73
2019-03-28T11:03:23.911Z,98143.44
2019-03-28T11:04:32.932Z,98140.19
2019-03-28T11:05:40.954Z,98141.33
2019-03-28T11:06:48.975Z,98138.88
2019-03-28T11:07:57.029Z,98142.97
2019-03-28T11:09:07.072Z,98138.36
2019-03-28T11:10:15.276Z,98138.12
2019-03-28T11:11:23.310Z,98143.97
2019-03-28T11:12:31.318Z,98138.98
2019-03-28T11:13:40.313Z,98148.57
2019-03-28T11:14:48.334Z,98145.34
2019-03-28T11:15:56.370Z,98141.28
2019-03-28T11:17:04.378Z,98145.02
2019-03-28T11:18:12.420Z,98141.03
2019-03-28T11:19:20.457Z,98143.90
2019-03-28T11:20:28.544Z,98141.59
2019-03-28T11:21:36.567Z,98142.27
2019-03-28T11:22:44.559Z,98141.73
2019-03-28T11:23:53.677Z,98145.47
2019-03-28T11:25:01.771Z,98141.56
2019-03-28T11:26:09.781Z,98142.37
2019-03-28T11:27:17.782Z,98138.84
2019-03-28T11:28:25.775Z,98148.28
2019-03-28T11:29:33.999Z,98147.27
2019-03-28T11:30:41.968Z,98141.98
2019-03-28T11:31:52.306Z,98137.62
2019-03-28T11:32:59.751Z,98137.53
2019-03-28T11:34:07.761Z,98129.72
2019-03-28T11:35:15.793Z,98133.55
2019-03-28T11:36:23.784Z,98140.05
2019-03-28T11:37:31.832Z,98140.52
2019-03-28T11:38:39.825Z,98136.23
2019-03-28T11:39:47.875Z,98137.16
2019-03-28T11:40:56.167Z,98139.76
2019-03-28T11:42:04.175Z,98137.99
2019-03-28T11:43:13.227Z,98139.67
2019-03-28T11:44:21.272Z,98140.43
2019-03-28T11:45:29.300Z,98139.02
2019-03-28T11:46:37.339Z,98136.70
2019-03-28T11:47:45.359Z,98132.71
2019-03-28T11:48:53.377Z,98133.09
2019-03-28T11:50:01.375Z,98133.38
2019-03-28T11:51:10.647Z,98132.84
2019-03-28T11:52:18.698Z,98135.82
2019-03-28T11:53:26.734Z,98136.28
2019-03-28T11:54:34.758Z,98134.98
2019-03-28T11:55:42.791Z,98136.28
2019-03-28T11:56:50.828Z,98139.34
2019-03-28T11:57:58.851Z,98137.66
2019-03-28T11:59:06.856Z,98134.22
2019-03-28T12:00:17.083Z,98132.55
2019-03-28T12:01:25.087Z,98130.41
2019-03-28T12:02:33.130Z,98134.77
2019-03-28T12:03:41.866Z,98128.72
2019-03-28T12:04:49.946Z,98135.23
2019-03-28T12:05:57.967Z,98127.51
2019-03-28T12:07:05.988Z,98133.55
2019-03-28T12:08:14.017Z,98128.05
2019-03-28T12:09:22.060Z,98124.15
2019-03-28T12:10:30.096Z,98124.52
2019-03-28T12:11:38.379Z,98123.98
2019-03-28T12:12:46.559Z,98125.11
2019-03-28T12:13:54.493Z,98125.87
2019-03-28T12:15:02.526Z,98123.14
2019-03-28T12:16:10.580Z,98123.35
2019-03-28T12:17:18.613Z,98122.72
2019-03-28T12:18:26.634Z,98118.17
2019-03-28T12:19:34.656Z,98118.73
2019-03-28T12:20:45.447Z,98110.65
2019-03-28T12:21:52.454Z,98118.67
2019-03-28T12:23:00.477Z,98111.02
2019-03-28T12:24:08.509Z,98119.04
2019-03-28T12:25:16.606Z,98114.50
2019-03-28T12:26:24.639Z,98114.20
2019-03-28T12:27:32.696Z,98115.70
2019-03-28T12:28:40.740Z,98113.38
2019-03-28T12:29:49.794Z,98119.81
2019-03-28T12:30:57.957Z,98113.55
2019-03-28T12:32:13.927Z,98110.86
2019-03-28T12:33:15.679Z,98115.14
2019-03-28T12:34:23.715Z,98114.67
2019-03-28T12:35:31.751Z,98112.45
2019-03-28T12:36:39.757Z,98112.36
2019-03-28T12:37:47.780Z,98107.52
2019-03-28T12:38:55.695Z,98110.50
2019-03-28T12:40:03.715Z,98105.38
2019-03-28T12:41:11.752Z,98106.68
2019-03-28T12:42:19.789Z,98105.84
2019-03-28T12:43:27.884Z,98099.70
2019-03-28T12:44:35.913Z,98109.57
2019-03-28T12:45:43.927Z,98101.75
2019-03-28T12:46:51.962Z,98101.20
2019-03-28T12:47:59.969Z,98106.29
2019-03-28T12:49:08.004Z,98100.15
2019-03-28T12:50:16.732Z,98100.15
2019-03-28T12:51:24.784Z,98100.98
2019-03-28T12:52:32.863Z,98093.91
2019-03-28T12:53:40.823Z,98095.59
2019-03-28T12:54:48.844Z,98088.61
2019-03-28T12:55:56.865Z,98092.43
2019-03-28T12:57:05.144Z,98091.50
2019-03-28T12:58:13.196Z,98092.28
2019-03-28T12:59:21.222Z,98093.73
2019-03-28T13:00:39.171Z,98096.43
2019-03-28T13:01:47.196Z,98095.69
2019-03-28T13:02:55.224Z,98088.25
2019-03-28T13:04:03.244Z,98095.61
2019-03-28T13:05:12.166Z,98094.30
2019-03-28T13:06:20.187Z,98090.30
2019-03-28T13:07:28.209Z,98094.84
2019-03-28T13:08:36.229Z,98095.13
2019-03-28T13:09:44.266Z,98089.77
2019-03-28T13:10:53.968Z,98088.89
2019-03-28T13:12:01.978Z,98086.70
2019-03-28T13:13:09.995Z,98093.67
2019-03-28T13:14:18.015Z,98090.61
2019-03-28T13:15:27.509Z,98093.22
2019-03-28T13:16:35.560Z,98088.47
2019-03-28T13:17:43.579Z,98090.66
2019-03-28T13:18:51.600Z,98091.12
2019-03-28T13:19:59.610Z,98092.05
2019-03-28T13:21:13.695Z,98094.20
2019-03-28T13:22:18.434Z,98085.08